createdAt,value
2022-12-13T00:00:14.709Z,62.54
2022-12-13T00:02:17.391Z,62.38
2022-12-13T00:04:21.588Z,62.95
2022-12-13T00:06:24.492Z,63.37
2022-12-13T00:08:27.492Z,63.06
2022-12-13T00:10:30.128Z,63.48
2022-12-13T00:12:34.566Z,63.35
2022-12-13T00:14:37.174Z,63.69
2022-12-13T00:16:39.906Z,64.09
2022-12-13T00:18:42.809Z,63.60
2022-12-13T00:20:45.394Z,63.76
2022-12-13T00:22:47.994Z,63.00
2022-12-13T00:24:50.634Z,63.30
2022-12-13T00:26:55.421Z,63.51
2022-12-13T00:29:00.445Z,62.77
2022-12-13T00:31:26.904Z,62.64
2022-12-13T00:33:26.094Z,62.39
2022-12-13T00:35:28.673Z,63.01
2022-12-13T00:37:31.373Z,62.72
2022-12-13T00:39:33.989Z,62.74
2022-12-13T00:41:37.402Z,62.76
2022-12-13T00:43:40.084Z,62.28
2022-12-13T00:45:44.173Z,62.85
2022-12-13T00:47:47.066Z,63.42
2022-12-13T00:49:49.668Z,63.44
2022-12-13T00:51:52.283Z,63.24
2022-12-13T00:53:56.155Z,63.15
2022-12-13T00:55:58.698Z,63.30
2022-12-13T00:58:01.238Z,63.31
2022-12-13T01:00:04.852Z,62.57
2022-12-13T01:02:08.826Z,62.83
2022-12-13T01:04:11.933Z,62.48
2022-12-13T01:06:16.738Z,62.88
2022-12-13T01:08:19.780Z,63.06
2022-12-13T01:10:22.515Z,63.18
2022-12-13T01:12:25.357Z,63.04
2022-12-13T01:14:28.828Z,63.27
2022-12-13T01:16:31.515Z,62.69
2022-12-13T01:18:36.313Z,63.28
2022-12-13T01:20:39.455Z,63.00
2022-12-13T01:22:42.035Z,62.95
2022-12-13T01:24:44.767Z,62.65
2022-12-13T01:26:47.620Z,63.02
2022-12-13T01:28:50.354Z,62.96
2022-12-13T01:30:57.542Z,62.75
2022-12-13T01:33:00.108Z,63.02
2022-12-13T01:35:04.108Z,62.43
2022-12-13T01:37:06.984Z,62.87
2022-12-13T01:39:14.629Z,62.07
2022-12-13T01:41:21.175Z,62.36
2022-12-13T01:43:50.479Z,61.98
2022-12-13T01:45:53.129Z,62.11
2022-12-13T01:48:00.488Z,61.88
2022-12-13T01:50:10.075Z,62.60
2022-12-13T01:52:14.986Z,61.99
2022-12-13T01:54:22.412Z,61.94
2022-12-13T01:56:30.574Z,61.91
2022-12-13T01:58:35.287Z,61.73
2022-12-13T02:00:38.319Z,62.06
2022-12-13T02:02:44.008Z,61.96
2022-12-13T02:04:51.786Z,61.80
2022-12-13T02:06:58.377Z,61.73
2022-12-13T02:09:01.679Z,60.92
2022-12-13T02:11:05.430Z,60.82
2022-12-13T02:13:08.458Z,61.74
2022-12-13T02:15:14.525Z,61.96
2022-12-13T02:17:25.031Z,62.07
2022-12-13T02:20:04.231Z,62.50
2022-12-13T02:22:26.358Z,61.97
2022-12-13T02:24:53.020Z,61.95
2022-12-13T02:27:32.555Z,61.57
2022-12-13T02:30:19.451Z,61.58
2022-12-13T02:32:31.170Z,61.71
2022-12-13T02:34:37.085Z,61.86
2022-12-13T02:36:47.592Z,61.30
2022-12-13T02:38:56.843Z,61.52
2022-12-13T02:41:07.939Z,61.49
2022-12-13T02:43:17.796Z,61.81
2022-12-13T02:45:30.977Z,62.11
2022-12-13T02:47:36.695Z,61.93
2022-12-13T02:49:43.258Z,62.04
2022-12-13T02:51:46.632Z,61.43
2022-12-13T02:53:49.635Z,61.76
2022-12-13T02:55:52.323Z,60.31
2022-12-13T02:57:57.982Z,61.31
2022-12-13T03:00:06.108Z,61.33
2022-12-13T03:02:31.275Z,61.48
2022-12-13T03:05:07.460Z,62.44
2022-12-13T03:07:21.400Z,62.78
2022-12-13T03:09:38.015Z,62.69
2022-12-13T03:12:16.498Z,62.73
2022-12-13T03:14:21.663Z,62.77
2022-12-13T03:16:30.017Z,62.25
2022-12-13T03:18:34.779Z,62.30
2022-12-13T03:20:38.749Z,61.87
2022-12-13T03:22:41.357Z,61.96
2022-12-13T03:24:43.970Z,61.96
2022-12-13T03:26:47.663Z,62.09
2022-12-13T03:28:51.474Z,62.22
2022-12-13T03:30:54.159Z,62.41
2022-12-13T03:32:56.786Z,62.85
2022-12-13T03:35:00.592Z,63.01
2022-12-13T03:37:05.586Z,63.21
2022-12-13T03:39:08.422Z,62.89
2022-12-13T03:41:14.263Z,62.78
2022-12-13T03:43:21.614Z,62.68
2022-12-13T03:45:25.368Z,62.61
2022-12-13T03:47:27.926Z,61.99
2022-12-13T03:49:35.552Z,62.14
2022-12-13T03:51:38.545Z,62.12
2022-12-13T03:53:43.347Z,62.42
2022-12-13T03:55:45.966Z,61.54
2022-12-13T03:57:48.903Z,62.28
2022-12-13T03:59:51.649Z,62.04
2022-12-13T04:01:54.551Z,61.55
2022-12-13T04:03:57.185Z,61.41
2022-12-13T04:05:59.877Z,62.00
2022-12-13T04:08:02.712Z,61.85
2022-12-13T04:10:25.984Z,62.57
2022-12-13T04:12:48.707Z,62.15
2022-12-13T04:14:51.610Z,63.16
2022-12-13T04:16:54.302Z,63.99
2022-12-13T04:18:56.916Z,64.08
2022-12-13T04:20:59.637Z,64.06
2022-12-13T04:23:09.853Z,64.31
2022-12-13T04:25:14.565Z,64.04
2022-12-13T04:27:17.348Z,63.48
2022-12-13T04:29:20.296Z,63.13
2022-12-13T04:31:23.417Z,63.07
2022-12-13T04:33:26.272Z,63.23
2022-12-13T04:35:29.227Z,63.05
2022-12-13T04:37:32.412Z,62.61
2022-12-13T04:39:35.025Z,62.67
2022-12-13T04:41:39.993Z,61.95
2022-12-13T04:43:42.615Z,62.47
2022-12-13T04:45:45.889Z,62.18
2022-12-13T04:47:48.520Z,61.77
2022-12-13T04:49:51.119Z,62.30
2022-12-13T04:51:58.931Z,62.31
2022-12-13T04:54:13.129Z,62.59
2022-12-13T04:56:26.151Z,62.87
2022-12-13T04:58:30.298Z,62.39
2022-12-13T05:00:32.903Z,61.80
2022-12-13T05:02:35.540Z,60.59
2022-12-13T05:04:38.235Z,61.68
2022-12-13T05:06:43.201Z,61.67
2022-12-13T05:08:45.853Z,61.80
2022-12-13T05:10:48.464Z,62.56
2022-12-13T05:12:51.046Z,61.81
2022-12-13T05:14:55.101Z,62.13
2022-12-13T05:16:57.749Z,62.07
2022-12-13T05:19:00.449Z,63.11
2022-12-13T05:21:03.571Z,62.84
2022-12-13T05:23:06.196Z,62.59
2022-12-13T05:25:09.631Z,62.45
2022-12-13T05:27:24.724Z,62.20
2022-12-13T05:29:29.619Z,63.12
2022-12-13T05:31:33.685Z,63.51
2022-12-13T05:33:36.554Z,63.09
2022-12-13T05:35:39.566Z,63.27
2022-12-13T05:37:42.255Z,63.92
2022-12-13T05:39:44.842Z,64.05
2022-12-13T05:41:47.482Z,64.08
2022-12-13T05:43:50.125Z,63.97
2022-12-13T05:49:18.569Z,63.15
2022-12-13T05:51:21.224Z,63.59
2022-12-13T05:53:30.906Z,63.71
2022-12-13T05:55:34.323Z,62.94
2022-12-13T05:57:37.095Z,63.21
2022-12-13T05:59:40.007Z,62.92
2022-12-13T06:01:43.713Z,63.73
2022-12-13T06:03:47.095Z,63.54
2022-12-13T06:05:51.189Z,63.13
2022-12-13T06:07:57.613Z,62.53
2022-12-13T06:10:10.665Z,62.55
2022-12-13T06:12:31.497Z,62.00
2022-12-13T06:14:35.272Z,62.39
2022-12-13T06:16:40.723Z,62.13
2022-12-13T06:18:43.350Z,63.12
2022-12-13T06:20:47.103Z,62.99
2022-12-13T06:22:51.067Z,62.91
2022-12-13T06:24:53.955Z,62.49
2022-12-13T06:26:56.615Z,62.56
2022-12-13T06:28:59.190Z,62.76
2022-12-13T06:31:02.292Z,62.97
2022-12-13T06:33:05.029Z,62.60
2022-12-13T06:35:27.177Z,63.17
2022-12-13T06:37:30.873Z,62.48
2022-12-13T06:39:35.152Z,62.23
2022-12-13T06:41:37.923Z,62.35
2022-12-13T06:43:43.680Z,62.18
2022-12-13T06:45:46.414Z,62.72
2022-12-13T06:47:49.070Z,62.46
2022-12-13T06:49:51.644Z,62.17
2022-12-13T06:51:54.789Z,62.44
2022-12-13T06:53:57.410Z,62.74
2022-12-13T06:56:07.301Z,63.46
2022-12-13T06:58:09.882Z,63.72
2022-12-13T07:00:13.672Z,63.57
2022-12-13T07:02:25.978Z,63.40
2022-12-13T07:04:30.958Z,63.81
2022-12-13T07:06:33.899Z,63.36
2022-12-13T07:08:36.976Z,63.96
2022-12-13T07:10:41.265Z,63.47
2022-12-13T07:12:45.247Z,63.65
2022-12-13T07:14:48.856Z,64.38
2022-12-13T07:16:51.539Z,63.97
2022-12-13T07:19:01.090Z,63.64
2022-12-13T07:21:05.407Z,63.37
2022-12-13T07:23:08.095Z,63.31
2022-12-13T07:25:27.006Z,62.65
2022-12-13T07:27:31.377Z,63.10
2022-12-13T07:29:35.334Z,62.84
2022-12-13T07:31:38.302Z,63.22
2022-12-13T07:33:41.351Z,62.24
2022-12-13T07:35:44.133Z,62.27
2022-12-13T07:37:46.767Z,63.21
2022-12-13T07:39:49.411Z,62.67
2022-12-13T07:41:54.529Z,63.94
2022-12-13T07:43:57.300Z,63.25
2022-12-13T07:46:02.630Z,64.52
2022-12-13T07:48:06.784Z,63.89
2022-12-13T07:50:23.988Z,64.49
2022-12-13T07:52:27.303Z,65.06
2022-12-13T07:54:29.890Z,64.82
2022-12-13T07:56:33.736Z,64.50
2022-12-13T07:58:36.858Z,65.54
2022-12-13T08:00:40.345Z,65.58
2022-12-13T08:02:50.370Z,65.83
2022-12-13T08:04:54.876Z,65.94
2022-12-13T08:06:57.959Z,65.51
2022-12-13T08:09:00.605Z,65.49
2022-12-13T08:11:04.480Z,65.76
2022-12-13T08:13:07.289Z,65.47
2022-12-13T08:15:13.934Z,65.53
2022-12-13T08:17:17.051Z,65.55
2022-12-13T08:19:21.288Z,65.87
2022-12-13T08:21:52.677Z,65.69
2022-12-13T08:23:46.548Z,65.65
2022-12-13T08:25:52.723Z,65.67
2022-12-13T08:27:55.395Z,65.58
2022-12-13T08:30:05.365Z,65.54
2022-12-13T08:32:11.463Z,65.59
2022-12-13T08:34:14.078Z,65.30
2022-12-13T08:36:18.974Z,65.50
2022-12-13T08:38:22.751Z,65.25
2022-12-13T08:40:25.870Z,65.26
2022-12-13T08:42:28.867Z,65.94
2022-12-13T08:44:31.747Z,65.42
2022-12-13T08:46:34.526Z,65.47
2022-12-13T08:48:44.278Z,65.68
2022-12-13T08:50:48.305Z,66.24
2022-12-13T08:52:52.900Z,66.00
2022-12-13T08:54:55.566Z,65.70
2022-12-13T08:56:59.143Z,66.04
2022-12-13T08:59:01.788Z,66.47
2022-12-13T09:01:07.765Z,66.37
2022-12-13T09:03:10.496Z,66.13
2022-12-13T09:05:32.978Z,65.78
2022-12-13T09:07:39.413Z,66.20
2022-12-13T09:09:43.414Z,65.88
2022-12-13T09:11:46.065Z,66.78
2022-12-13T09:13:49.357Z,66.47
2022-12-13T09:15:52.789Z,66.68
2022-12-13T09:18:04.489Z,66.66
2022-12-13T09:20:28.509Z,67.00
2022-12-13T09:22:33.228Z,66.79
2022-12-13T09:24:37.205Z,67.19
2022-12-13T09:26:41.221Z,67.19
2022-12-13T09:28:44.022Z,67.31
2022-12-13T09:30:46.725Z,66.74
2022-12-13T09:32:50.528Z,67.12
2022-12-13T09:34:53.222Z,66.66
2022-12-13T09:37:01.571Z,66.77
2022-12-13T09:39:05.492Z,66.65
2022-12-13T09:41:19.685Z,67.10
2022-12-13T09:43:32.008Z,66.43
2022-12-13T09:45:36.646Z,66.23
2022-12-13T09:47:48.128Z,66.40
2022-12-13T09:49:52.678Z,66.43
2022-12-13T09:52:11.026Z,66.27
2022-12-13T09:54:19.389Z,66.43
2022-12-13T09:56:23.921Z,66.30
2022-12-13T09:58:31.798Z,66.43
2022-12-13T10:00:36.412Z,66.45
2022-12-13T10:02:45.069Z,66.33
2022-12-13T10:04:48.049Z,65.90
2022-12-13T10:06:54.241Z,66.50
2022-12-13T10:08:59.318Z,66.12
2022-12-13T10:11:05.091Z,66.01
2022-12-13T10:13:16.147Z,66.25
2022-12-13T10:15:22.779Z,66.31
2022-12-13T10:17:29.679Z,66.74
2022-12-13T10:19:44.597Z,66.75
2022-12-13T10:21:51.490Z,67.16
2022-12-13T10:24:26.043Z,66.84
2022-12-13T10:26:24.380Z,67.35
2022-12-13T10:28:30.202Z,67.38
2022-12-13T10:30:42.503Z,67.71
2022-12-13T10:32:55.983Z,67.52
2022-12-13T10:34:58.698Z,67.94
2022-12-13T10:37:13.696Z,67.65
2022-12-13T10:39:18.677Z,68.00
2022-12-13T10:41:36.125Z,68.44
2022-12-13T10:43:39.597Z,67.99
2022-12-13T10:45:45.216Z,68.04
2022-12-13T10:47:48.018Z,68.54
2022-12-13T10:49:58.993Z,68.65
2022-12-13T10:52:02.949Z,68.68
2022-12-13T10:54:06.434Z,68.57
2022-12-13T10:56:09.241Z,68.24
2022-12-13T10:58:20.894Z,68.77
2022-12-13T11:00:35.324Z,68.62
2022-12-13T11:02:41.534Z,68.55
2022-12-13T11:04:44.582Z,68.38
2022-12-13T11:06:48.782Z,68.69
2022-12-13T11:08:51.398Z,68.89
2022-12-13T11:11:02.879Z,68.52
2022-12-13T11:13:08.398Z,68.85
2022-12-13T11:15:23.121Z,69.04
2022-12-13T11:17:30.961Z,68.94
2022-12-13T11:19:40.111Z,69.01
2022-12-13T11:21:48.625Z,69.20
2022-12-13T11:23:51.294Z,69.39
2022-12-13T11:25:57.714Z,69.53
2022-12-13T11:28:26.159Z,69.80
2022-12-13T11:30:38.516Z,69.50
2022-12-13T11:32:59.504Z,69.24
2022-12-13T11:35:14.750Z,69.43
2022-12-13T11:37:27.370Z,69.53
2022-12-13T11:39:33.476Z,69.50
2022-12-13T11:41:39.905Z,69.58
2022-12-13T11:43:49.189Z,69.57
2022-12-13T11:45:56.531Z,69.25
2022-12-13T11:48:05.693Z,68.95
2022-12-13T11:50:33.127Z,68.86
2022-12-13T11:52:41.830Z,68.56
2022-12-13T11:54:51.415Z,68.21
2022-12-13T11:57:00.595Z,68.04
2022-12-13T11:59:20.523Z,67.80
2022-12-13T12:01:38.190Z,67.37
2022-12-13T12:03:46.322Z,67.11
2022-12-13T12:05:55.824Z,66.95
2022-12-13T12:08:31.791Z,67.25
2022-12-13T12:10:31.831Z,66.99
2022-12-13T12:12:37.060Z,66.70
2022-12-13T12:14:47.683Z,66.61
2022-12-13T12:16:59.544Z,66.50
2022-12-13T12:19:02.364Z,65.77
2022-12-13T12:21:17.851Z,65.88
2022-12-13T12:23:29.478Z,66.04
2022-12-13T12:25:42.420Z,65.67
2022-12-13T12:27:52.921Z,65.65
2022-12-13T12:30:12.100Z,65.74
2022-12-13T12:32:26.302Z,65.66
2022-12-13T12:34:39.694Z,65.67
2022-12-13T12:36:53.066Z,64.71
2022-12-13T12:39:35.242Z,64.95
2022-12-13T12:41:51.289Z,65.08
2022-12-13T12:44:01.274Z,64.81
2022-12-13T12:46:18.200Z,64.78
2022-12-13T12:51:05.979Z,63.52
2022-12-13T12:53:26.918Z,63.50
2022-12-13T12:55:45.810Z,63.45
2022-12-13T12:58:01.614Z,63.35
2022-12-13T13:00:12.038Z,63.13
2022-12-13T13:02:23.560Z,63.03
2022-12-13T13:04:33.097Z,63.03
2022-12-13T13:06:39.720Z,62.70
2022-12-13T13:08:53.375Z,62.65
2022-12-13T13:11:01.971Z,62.23
2022-12-13T13:13:11.619Z,61.72
2022-12-13T13:15:55.616Z,61.84
2022-12-13T13:17:59.162Z,61.46
2022-12-13T13:20:18.240Z,61.61
2022-12-13T13:22:32.198Z,61.42
2022-12-13T13:24:36.516Z,61.11
2022-12-13T13:26:42.608Z,60.75
2022-12-13T13:28:45.230Z,61.10
2022-12-13T13:31:04.621Z,60.63
2022-12-13T13:33:43.151Z,60.88
2022-12-13T13:35:50.246Z,60.66
2022-12-13T13:37:53.008Z,60.54
2022-12-13T13:40:00.407Z,60.13
2022-12-13T13:42:24.428Z,60.51
2022-12-13T13:45:01.847Z,60.44
2022-12-13T13:47:15.882Z,60.46
2022-12-13T13:49:18.583Z,60.31
2022-12-13T13:54:53.296Z,60.06
2022-12-13T13:58:08.784Z,60.50
2022-12-13T14:00:18.299Z,59.95
2022-12-13T14:02:51.553Z,60.24
2022-12-13T14:05:14.987Z,59.54
2022-12-13T14:08:02.304Z,60.00
2022-12-13T14:10:19.257Z,59.66
2022-12-13T14:12:52.674Z,60.31
2022-12-13T14:15:25.636Z,60.43
2022-12-13T14:18:21.333Z,60.18
2022-12-13T14:20:43.739Z,59.89
2022-12-13T14:22:47.380Z,59.86
2022-12-13T14:24:57.031Z,60.34
2022-12-13T14:27:12.405Z,60.18
2022-12-13T14:29:19.392Z,60.12
2022-12-13T14:31:24.960Z,59.94
2022-12-13T14:33:28.526Z,60.23
2022-12-13T14:35:33.824Z,60.24
2022-12-13T14:37:38.453Z,59.84
2022-12-13T14:39:45.851Z,59.90
2022-12-13T14:41:50.120Z,59.64
2022-12-13T14:44:16.420Z,59.59
2022-12-13T14:46:19.254Z,59.60
2022-12-13T14:48:28.877Z,59.33
2022-12-13T14:50:35.343Z,59.80
2022-12-13T14:52:41.054Z,59.75
2022-12-13T14:54:48.552Z,59.22
2022-12-13T14:56:59.539Z,59.90
2022-12-13T14:59:04.002Z,59.94
2022-12-13T15:01:23.669Z,59.91
2022-12-13T15:03:32.394Z,59.94
2022-12-13T15:05:47.146Z,60.10
2022-12-13T15:07:53.779Z,60.00
2022-12-13T15:09:59.637Z,59.70
2022-12-13T15:12:23.786Z,59.45
2022-12-13T15:14:26.694Z,59.05
2022-12-13T15:16:30.808Z,58.32
2022-12-13T15:18:34.703Z,58.08
2022-12-13T15:20:40.996Z,57.95
2022-12-13T15:22:43.936Z,57.48
2022-12-13T15:24:48.724Z,57.39
2022-12-13T15:26:51.881Z,57.20
2022-12-13T15:28:56.780Z,57.14
2022-12-13T15:31:01.075Z,57.04
2022-12-13T15:33:07.765Z,57.39
2022-12-13T15:35:27.668Z,57.26
2022-12-13T15:37:33.312Z,56.93
2022-12-13T15:39:40.742Z,57.64
2022-12-13T15:41:52.061Z,57.05
2022-12-13T15:43:57.730Z,57.35
2022-12-13T15:46:00.789Z,57.65
2022-12-13T15:48:05.072Z,57.10
2022-12-13T15:50:08.572Z,56.89
2022-12-13T15:52:28.329Z,56.81
2022-12-13T15:54:31.524Z,57.10
2022-12-13T15:56:36.451Z,56.63
2022-12-13T15:58:39.639Z,56.67
2022-12-13T16:00:49.645Z,56.74
2022-12-13T16:02:56.420Z,56.56
2022-12-13T16:05:08.874Z,57.02
2022-12-13T16:07:23.006Z,56.82
2022-12-13T16:09:28.527Z,57.40
2022-12-13T16:11:34.525Z,57.29
2022-12-13T16:13:39.942Z,56.89
2022-12-13T16:15:51.802Z,57.03
2022-12-13T16:18:15.574Z,57.06
2022-12-13T16:20:21.485Z,57.18
2022-12-13T16:22:24.375Z,56.63
2022-12-13T16:24:27.113Z,56.82
2022-12-13T16:26:31.171Z,57.07
2022-12-13T16:28:33.906Z,56.79
2022-12-13T16:31:03.911Z,57.31
2022-12-13T16:33:26.675Z,56.90
2022-12-13T16:35:30.443Z,56.67
2022-12-13T16:37:33.081Z,55.76
2022-12-13T16:39:35.780Z,55.78
2022-12-13T16:41:40.137Z,56.01
2022-12-13T16:43:52.572Z,55.90
2022-12-13T16:45:56.580Z,56.42
2022-12-13T16:47:59.338Z,56.55
2022-12-13T16:50:04.545Z,56.57
2022-12-13T16:52:08.510Z,56.63
2022-12-13T16:54:11.140Z,57.19
2022-12-13T16:56:16.349Z,56.93
2022-12-13T16:58:21.174Z,56.76
2022-12-13T17:00:24.033Z,57.07
2022-12-13T17:02:26.731Z,56.82
2022-12-13T17:04:29.529Z,57.12
2022-12-13T17:06:32.239Z,56.67
2022-12-13T17:08:36.167Z,57.04
2022-12-13T17:10:43.915Z,57.18
2022-12-13T17:12:47.133Z,57.28
2022-12-13T17:14:49.738Z,57.30
2022-12-13T17:16:52.389Z,57.41
2022-12-13T17:18:56.723Z,56.96
2022-12-13T17:20:59.551Z,56.68
2022-12-13T17:23:02.493Z,56.67
2022-12-13T17:25:07.420Z,56.41
2022-12-13T17:27:10.115Z,56.94
2022-12-13T17:29:17.556Z,57.73
2022-12-13T17:31:21.604Z,58.29
2022-12-13T17:33:25.651Z,58.34
2022-12-13T17:35:29.255Z,58.63
2022-12-13T17:37:32.084Z,57.77
2022-12-13T17:39:34.714Z,57.64
2022-12-13T17:41:39.050Z,57.45
2022-12-13T17:43:43.317Z,57.28
2022-12-13T17:45:46.518Z,57.10
2022-12-13T17:47:49.283Z,57.16
2022-12-13T17:49:51.869Z,57.38
2022-12-13T17:51:55.549Z,57.31
2022-12-13T17:53:58.299Z,56.95
2022-12-13T17:56:02.944Z,56.50
2022-12-13T17:58:06.994Z,56.43
2022-12-13T18:00:10.908Z,55.99
2022-12-13T18:02:14.047Z,55.49
2022-12-13T18:04:17.411Z,54.99
2022-12-13T18:06:20.524Z,55.64
2022-12-13T18:08:23.260Z,55.08
2022-12-13T18:10:29.839Z,55.32
2022-12-13T18:12:33.936Z,55.07
2022-12-13T18:14:37.896Z,55.44
2022-12-13T18:16:40.970Z,55.75
2022-12-13T18:18:43.831Z,55.86
2022-12-13T18:20:57.700Z,56.38
2022-12-13T18:23:00.283Z,56.56
2022-12-13T18:25:02.919Z,56.46
2022-12-13T18:27:05.732Z,56.82
2022-12-13T18:29:08.375Z,56.86
2022-12-13T18:31:15.337Z,56.50
2022-12-13T18:33:18.012Z,56.97
2022-12-13T18:35:20.788Z,56.89
2022-12-13T18:37:23.454Z,56.52
2022-12-13T18:39:26.039Z,57.02
2022-12-13T18:41:30.718Z,57.28
2022-12-13T18:43:33.359Z,56.99
2022-12-13T18:45:35.941Z,56.91
2022-12-13T18:47:39.863Z,57.11
2022-12-13T18:49:43.188Z,56.91
2022-12-13T18:51:58.065Z,56.87
2022-12-13T18:54:03.411Z,57.12
2022-12-13T18:56:12.875Z,56.59
2022-12-13T18:58:18.867Z,57.16
2022-12-13T19:00:21.516Z,57.47
2022-12-13T19:02:24.306Z,57.57
2022-12-13T19:04:28.321Z,58.00
2022-12-13T19:06:31.014Z,58.56
2022-12-13T19:08:34.175Z,58.66
2022-12-13T19:10:36.830Z,58.76
2022-12-13T19:12:39.994Z,58.54
2022-12-13T19:14:45.284Z,58.81
2022-12-13T19:16:57.565Z,58.73
2022-12-13T19:19:00.404Z,58.72
2022-12-13T19:21:08.013Z,58.49
2022-12-13T19:23:11.831Z,58.70
2022-12-13T19:25:14.539Z,58.93
2022-12-13T19:27:18.203Z,59.08
2022-12-13T19:29:21.769Z,58.85
2022-12-13T19:31:30.565Z,58.68
2022-12-13T19:33:34.600Z,58.86
2022-12-13T19:35:37.366Z,58.60
2022-12-13T19:37:41.322Z,58.58
2022-12-13T19:39:43.921Z,58.57
2022-12-13T19:41:46.843Z,57.92
2022-12-13T19:43:52.966Z,57.79
2022-12-13T19:45:55.885Z,57.40
2022-12-13T19:47:58.502Z,57.51
2022-12-13T19:50:01.171Z,57.88
2022-12-13T19:52:03.834Z,57.60
2022-12-13T19:54:08.127Z,57.27
2022-12-13T19:56:12.673Z,57.43
2022-12-13T19:58:15.293Z,57.73
2022-12-13T20:00:18.398Z,57.80
2022-12-13T20:02:21.004Z,58.09
2022-12-13T20:04:23.709Z,58.43
2022-12-13T20:06:26.294Z,58.47
2022-12-13T20:08:29.056Z,58.70
2022-12-13T20:10:35.472Z,58.89
2022-12-13T20:12:40.985Z,58.63
2022-12-13T20:14:43.972Z,58.82
2022-12-13T20:16:46.747Z,59.02
2022-12-13T20:18:54.457Z,58.48
2022-12-13T20:21:11.485Z,58.35
2022-12-13T20:23:14.815Z,58.65
2022-12-13T20:25:17.800Z,58.14
2022-12-13T20:27:24.526Z,58.78
2022-12-13T20:29:27.167Z,58.72
2022-12-13T20:31:31.598Z,59.12
2022-12-13T20:33:34.332Z,58.28
2022-12-13T20:35:54.246Z,57.99
2022-12-13T20:38:00.617Z,58.38
2022-12-13T20:40:03.452Z,58.22
2022-12-13T20:42:06.375Z,58.09
2022-12-13T20:44:13.231Z,58.68
2022-12-13T20:46:16.268Z,58.62
2022-12-13T20:48:18.988Z,58.79
2022-12-13T20:50:21.776Z,58.48
2022-12-13T20:52:24.596Z,59.31
2022-12-13T20:54:27.320Z,59.49
2022-12-13T20:56:31.765Z,59.16
2022-12-13T20:58:39.726Z,59.67
2022-12-13T21:00:44.181Z,59.91
2022-12-13T21:02:46.846Z,59.72
2022-12-13T21:04:49.450Z,60.13
2022-12-13T21:06:52.258Z,60.32
2022-12-13T21:08:54.713Z,59.71
2022-12-13T21:11:01.944Z,59.91
2022-12-13T21:13:07.748Z,59.82
2022-12-13T21:15:10.625Z,59.71
2022-12-13T21:17:16.877Z,59.54
2022-12-13T21:19:22.407Z,59.95
2022-12-13T21:21:25.537Z,59.86
2022-12-13T21:23:30.062Z,60.16
2022-12-13T21:25:32.753Z,60.76
2022-12-13T21:27:35.441Z,60.57
2022-12-13T21:29:38.073Z,60.79
2022-12-13T21:31:42.810Z,60.77
2022-12-13T21:33:49.558Z,60.33
2022-12-13T21:35:52.268Z,60.56
2022-12-13T21:37:55.226Z,60.78
2022-12-13T21:39:57.816Z,60.47
2022-12-13T21:42:00.494Z,60.27
2022-12-13T21:44:03.096Z,60.49
2022-12-13T21:46:08.473Z,60.50
2022-12-13T21:48:11.174Z,60.04
2022-12-13T21:50:15.128Z,60.63
2022-12-13T21:52:17.824Z,60.28
2022-12-13T21:54:20.758Z,60.18
2022-12-13T21:56:43.121Z,60.02
2022-12-13T21:59:04.012Z,60.24
2022-12-13T22:01:06.657Z,60.37
2022-12-13T22:03:09.303Z,59.90
2022-12-13T22:05:11.871Z,59.99
2022-12-13T22:07:17.493Z,59.87
2022-12-13T22:09:20.107Z,60.16
2022-12-13T22:11:22.759Z,59.99
2022-12-13T22:13:25.344Z,60.13
2022-12-13T22:15:27.934Z,59.97
2022-12-13T22:17:35.789Z,59.99
2022-12-13T22:19:39.113Z,60.08
2022-12-13T22:21:42.200Z,60.42
2022-12-13T22:23:46.155Z,60.35
2022-12-13T22:25:48.961Z,60.13
2022-12-13T22:27:51.634Z,60.23
2022-12-13T22:29:56.545Z,60.26
2022-12-13T22:32:00.198Z,60.35
2022-12-13T22:34:02.855Z,60.31
2022-12-13T22:36:05.634Z,59.60
2022-12-13T22:38:08.359Z,60.06
2022-12-13T22:40:13.315Z,59.61
2022-12-13T22:42:16.453Z,60.14
2022-12-13T22:44:21.355Z,60.20
2022-12-13T22:46:23.988Z,59.84
2022-12-13T22:48:26.912Z,60.25
2022-12-13T22:50:29.865Z,60.39
2022-12-13T22:52:34.154Z,60.13
2022-12-13T22:54:36.904Z,60.56
2022-12-13T22:56:40.942Z,60.16
2022-12-13T22:58:43.688Z,60.04
2022-12-13T23:00:46.358Z,60.47
2022-12-13T23:02:49.096Z,60.03
2022-12-13T23:04:51.756Z,59.53
2022-12-13T23:06:54.353Z,59.67
2022-12-13T23:08:58.807Z,59.36
2022-12-13T23:11:19.195Z,59.67
2022-12-13T23:13:23.128Z,59.84
2022-12-13T23:15:25.761Z,59.63
2022-12-13T23:17:28.363Z,60.11
2022-12-13T23:19:41.427Z,59.72
2022-12-13T23:21:51.320Z,59.89
2022-12-13T23:23:56.604Z,60.18
2022-12-13T23:26:08.795Z,60.54
2022-12-13T23:28:11.353Z,60.52
2022-12-13T23:30:15.475Z,60.38
2022-12-13T23:32:18.117Z,60.75
2022-12-13T23:34:21.347Z,60.63
2022-12-13T23:36:26.091Z,60.97
2022-12-13T23:38:29.309Z,60.57
2022-12-13T23:40:32.333Z,61.27
2022-12-13T23:42:34.948Z,60.92
2022-12-13T23:44:37.697Z,61.43
2022-12-13T23:46:41.773Z,61.73
2022-12-13T23:48:51.444Z,62.23
2022-12-13T23:50:54.146Z,63.01
2022-12-13T23:52:56.760Z,63.23
2022-12-13T23:54:59.365Z,63.13
2022-12-13T23:57:01.966Z,63.69
2022-12-13T23:59:04.532Z,64.08
